LIPX/VRN METAR and TAF weather

Enter ICAO airport designator
Station Type Date Time Source
LIPX METAR 2024/04/15 09:20 UTC NOAA

LIPX 150920Z VRB04KT 9999 FEW080 22/13 Q1013


Station Type Date Time Source
LIPX Decoded METAR 2024/04/15 09:20 UTC NOAA

Verona / Villafranca, Italy (LIPX) 45-23N 010-52E 68M
Apr 15, 2024 - 05:20 AM EDT / 2024.04.15 0920 UTC
Wind: Variable at 5 MPH (4 KT):0
Visibility: greater than 7 mile(s):0
Sky conditions: mostly clear
Temperature: 71 F (22 C)
Dew Point: 55 F (13 C)
Relative Humidity: 56%
Pressure (altimeter): 29.91 in. Hg (1013 hPa)
ob: LIPX 150920Z VRB04KT 9999 FEW080 22/13 Q1013
cycle: 9

Station Type Date Time Source
LIPX TAF 2024/04/15 06:21 UTC NOAA